Time;durP1;ratioP1;P1;durP2;ratioP2;P2;SDS_P1;SDS_P2;PMS_P1;PMS_P2;Temp;Humidity;BMP_temperature;BMP_pressure;BME280_temperature;BME280_humidity;BME280_pressure;Samples;Min_cycle;Max_cycle;Signal;HPM_P1;HPM_P2
2023/04/09 00:02:15;;;;;;;33.73;18.07;;;;;;;-142.75;100.00;78350.19;5005269;28;20029;-65
2023/04/09 00:04:40;;;;;;;30.20;16.40;;;;;;;-142.75;100.00;78358.06;5017315;28;20041;-67
2023/04/09 00:07:05;;;;;;;32.77;17.43;;;;;;;-142.75;100.00;78340.34;5013527;28;20030;-66
2023/04/09 00:09:31;;;;;;;26.50;15.97;;;;;;;-142.75;100.00;78336.41;5013742;28;20036;-67
2023/04/09 00:11:57;;;;;;;30.30;17.47;;;;;;;-142.75;100.00;78340.34;4996207;28;20030;-66
2023/04/09 00:14:22;;;;;;;32.43;16.80;;;;;;;-142.75;100.00;78352.16;5013610;28;20453;-67
2023/04/09 00:16:48;;;;;;;29.70;16.67;;;;;;;-142.75;100.00;78354.13;5015864;28;20030;-64
2023/04/09 00:19:13;;;;;;;31.23;17.57;;;;;;;-142.75;100.00;78346.25;5023707;28;20028;-65
2023/04/09 00:21:38;;;;;;;28.50;17.07;;;;;;;-142.75;100.00;78350.19;5021950;28;20513;-64
2023/04/09 00:24:04;;;;;;;31.17;18.10;;;;;;;-142.75;100.00;78346.25;5023431;28;20104;-63
2023/04/09 00:26:30;;;;;;;31.10;17.77;;;;;;;-142.75;100.00;78348.22;5022897;28;20026;-65
2023/04/09 00:28:55;;;;;;;30.07;17.73;;;;;;;-142.75;100.00;78354.13;5016501;28;20401;-66
2023/04/09 00:31:21;;;;;;;33.73;18.90;;;;;;;-142.75;100.00;78348.22;5013381;28;20072;-64
2023/04/09 00:33:46;;;;;;;34.57;20.17;;;;;;;-142.75;100.00;78352.16;5013150;28;20025;-65
2023/04/09 00:36:11;;;;;;;31.50;18.13;;;;;;;-142.75;100.00;78350.19;5012864;28;20025;-67
2023/04/09 00:38:37;;;;;;;37.23;18.97;;;;;;;-142.75;100.00;78334.44;4995749;28;20099;-66
2023/04/09 00:41:02;;;;;;;37.63;19.23;;;;;;;-142.75;100.00;78328.53;5013183;28;20034;-67
2023/04/09 00:43:28;;;;;;;35.53;19.83;;;;;;;-142.75;100.00;78334.44;5013009;28;20040;-67
2023/04/09 00:45:53;;;;;;;37.73;19.70;;;;;;;-142.75;100.00;78330.50;5012751;28;20405;-65
2023/04/09 00:48:20;;;;;;;37.37;19.30;;;;;;;-142.75;100.00;78334.44;5013076;28;20033;-65
2023/04/09 00:50:45;;;;;;;27.73;16.07;;;;;;;-142.75;100.00;78332.47;5012432;28;20030;-64
2023/04/09 00:53:11;;;;;;;31.80;18.43;;;;;;;-142.75;100.00;78330.50;5012884;28;20033;-65
2023/04/09 00:55:39;;;;;;;28.33;16.60;;;;;;;-142.75;100.00;78342.31;5012824;28;20034;-63
2023/04/09 00:58:04;;;;;;;28.63;16.23;;;;;;;-142.75;100.00;78340.34;4995261;28;20030;-65
2023/04/09 01:00:30;;;;;;;27.77;16.53;;;;;;;-142.75;100.00;78354.13;4995294;28;20032;-64
2023/04/09 01:02:57;;;;;;;29.00;14.70;;;;;;;-142.75;100.00;78401.38;4995048;28;20030;-66
2023/04/09 01:05:33;;;;;;;29.07;15.27;;;;;;;-142.75;100.00;78381.69;5012724;28;20032;-63
2023/04/09 01:08:29;;;;;;;30.50;16.65;;;;;;;-142.75;100.00;78369.88;4995015;28;20041;-65
2023/04/09 01:11:02;;;;;;;39.33;20.30;;;;;;;-142.75;100.00;78363.97;4995130;28;20029;-65
2023/04/09 01:13:34;;;;;;;38.53;19.13;;;;;;;-142.75;100.00;78342.31;4994817;28;20029;-65
2023/04/09 01:16:02;;;;;;;37.40;19.23;;;;;;;-142.75;100.00;78334.44;5012455;28;20075;-65
2023/04/09 01:18:38;;;;;;;42.37;20.90;;;;;;;-142.75;100.00;78314.75;5012508;28;20037;-64
2023/04/09 01:21:09;;;;;;;42.93;22.00;;;;;;;-142.75;100.00;78308.84;5012591;28;20379;-65
2023/04/09 01:24:08;;;;;;;43.73;22.93;;;;;;;-142.75;100.00;78281.25;5012525;28;20033;-64
2023/04/09 01:27:02;;;;;;;42.70;21.93;;;;;;;-142.75;100.00;78259.59;5012473;28;20026;-65
2023/04/09 01:29:31;;;;;;;45.50;23.50;;;;;;;-142.75;100.00;78251.72;5012481;28;20061;-65
2023/04/09 01:31:59;;;;;;;45.67;22.57;;;;;;;-142.75;100.00;78243.84;4994784;28;20026;-65
2023/04/09 01:34:26;;;;;;;44.10;23.03;;;;;;;-142.75;100.00;78235.97;5012237;28;20033;-65
2023/04/09 01:36:56;;;;;;;44.17;22.50;;;;;;;-142.75;100.00;78224.16;5011998;28;20034;-65
2023/04/09 01:39:22;;;;;;;42.07;22.30;;;;;;;-142.75;100.00;78214.31;5012276;28;20030;-65
2023/04/09 01:41:49;;;;;;;46.13;22.77;;;;;;;-142.75;100.00;78200.53;5012172;28;20533;-67
2023/04/09 01:44:16;;;;;;;43.63;23.27;;;;;;;-142.75;100.00;78196.59;4994249;28;20033;-67
2023/04/09 01:46:42;;;;;;;40.73;21.57;;;;;;;-142.75;100.00;78194.63;5011882;28;20030;-67
2023/04/09 01:49:09;;;;;;;49.97;23.50;;;;;;;-142.75;100.00;78188.72;5012092;28;20083;-68
2023/04/09 01:51:35;;;;;;;43.53;21.93;;;;;;;-142.75;100.00;78186.75;5012134;28;20037;-67
2023/04/09 01:54:01;;;;;;;45.20;23.03;;;;;;;-142.75;100.00;78176.88;5012046;28;20053;-66
2023/04/09 01:56:26;;;;;;;47.07;22.17;;;;;;;-142.75;100.00;78170.97;5011955;28;20057;-67
2023/04/09 01:58:51;;;;;;;39.67;21.37;;;;;;;-142.75;100.00;78172.94;5012038;28;20072;-67
2023/04/09 02:01:30;;;;;;;40.97;23.00;;;;;;;-142.75;100.00;78157.19;5011989;28;20033;-66
2023/04/09 02:03:59;;;;;;;39.43;21.20;;;;;;;-142.75;100.00;78147.34;4993426;28;20034;-67
2023/04/09 02:06:33;;;;;;;37.70;19.63;;;;;;;-142.75;100.00;78153.25;5011626;28;20030;-67
2023/04/09 02:09:00;;;;;;;40.67;20.57;;;;;;;-142.75;100.00;78161.13;4994243;28;20414;-66
2023/04/09 02:11:28;;;;;;;38.65;20.50;;;;;;;-142.75;100.00;78169.00;4994238;28;20026;-66
2023/04/09 02:13:55;;;;;;;38.57;19.70;;;;;;;-142.75;100.00;78167.03;5011751;28;20030;-66
2023/04/09 02:16:22;;;;;;;39.17;20.57;;;;;;;-142.75;100.00;78172.94;5011577;28;20065;-67
2023/04/09 02:18:52;;;;;;;39.27;20.60;;;;;;;-142.75;100.00;78165.06;5011789;28;20684;-66
2023/04/09 02:21:17;;;;;;;39.38;20.27;;;;;;;-142.75;100.00;78174.91;5011946;28;20022;-66
2023/04/09 02:23:42;;;;;;;34.90;19.60;;;;;;;-142.75;100.00;78180.81;5011707;28;20030;-67
2023/04/09 02:26:08;;;;;;;38.10;21.33;;;;;;;-142.75;100.00;78176.88;5011505;28;20482;-67
2023/04/09 02:28:33;;;;;;;36.50;19.70;;;;;;;-142.75;100.00;78188.72;5011715;28;20080;-66
2023/04/09 02:30:58;;;;;;;36.93;19.70;;;;;;;-142.75;100.00;78184.78;5011703;28;20084;-67
2023/04/09 02:33:24;;;;;;;35.93;19.53;;;;;;;-142.75;100.00;78176.88;5011618;28;20124;-67
2023/04/09 02:35:49;;;;;;;40.30;19.97;;;;;;;-142.75;100.00;78169.00;4993699;28;20026;-66
2023/04/09 02:38:14;;;;;;;34.42;19.23;;;;;;;-142.75;100.00;78159.16;5011682;28;20037;-66
2023/04/09 02:40:40;;;;;;;35.35;18.35;;;;;;;-142.75;100.00;78161.13;4993957;28;20038;-67
2023/04/09 02:43:05;;;;;;;36.80;19.58;;;;;;;-142.75;100.00;78161.13;5011500;28;20068;-67
2023/04/09 02:45:31;;;;;;;32.90;18.70;;;;;;;-142.75;100.00;78163.09;5011113;28;20101;-67
2023/04/09 02:47:56;;;;;;;36.43;18.77;;;;;;;-142.75;100.00;78167.03;5011425;28;20521;-67
2023/04/09 02:50:21;;;;;;;41.03;20.10;;;;;;;-142.75;100.00;78157.19;5011341;28;20112;-67
2023/04/09 02:52:47;;;;;;;37.13;18.90;;;;;;;-142.75;100.00;78165.06;5011437;28;20393;-67
2023/04/09 02:55:13;;;;;;;36.85;19.02;;;;;;;-142.75;100.00;78163.09;4993814;28;20048;-66
2023/04/09 02:57:38;;;;;;;37.20;20.00;;;;;;;-142.75;100.00;78170.97;4993654;28;20401;-65
2023/04/09 03:00:04;;;;;;;35.83;20.43;;;;;;;-142.75;100.00;78165.06;5011400;28;20032;-64
2023/04/09 03:02:29;;;;;;;34.50;19.77;;;;;;;-142.75;100.00;78163.09;5011311;28;20060;-64
2023/04/09 03:04:55;;;;;;;37.40;20.17;;;;;;;-142.75;100.00;78165.06;5011190;28;20061;-65
2023/04/09 03:07:21;;;;;;;37.10;19.47;;;;;;;-142.75;100.00;78161.13;5018586;28;20065;-65
2023/04/09 03:09:46;;;;;;;32.95;18.73;;;;;;;-142.75;100.00;78155.22;5031049;28;20075;-65
2023/04/09 03:12:11;;;;;;;37.80;20.63;;;;;;;-142.75;100.00;78165.06;5030910;28;20033;-65
2023/04/09 03:14:37;;;;;;;34.03;17.87;;;;;;;-142.75;100.00;78167.03;5032668;28;20030;-67
2023/04/09 03:17:02;;;;;;;35.55;19.48;;;;;;;-142.75;100.00;78157.19;5034371;28;20122;-65
2023/04/09 03:19:29;;;;;;;34.90;18.50;;;;;;;-142.75;100.00;78149.31;5034530;28;20029;-66
2023/04/09 03:21:54;;;;;;;32.80;17.75;;;;;;;-142.75;100.00;78149.31;5034512;28;20033;-67
2023/04/09 03:24:20;;;;;;;33.03;18.23;;;;;;;-142.75;100.00;78153.25;5034379;28;20405;-67
2023/04/09 03:26:45;;;;;;;35.72;19.10;;;;;;;-142.75;100.00;78151.28;5034164;28;20026;-67
2023/04/09 03:29:11;;;;;;;33.42;16.83;;;;;;;-142.75;100.00;78147.34;5034285;28;20408;-67
2023/04/09 03:31:36;;;;;;;36.77;18.50;;;;;;;-142.75;100.00;78147.34;5016582;28;20029;-67
2023/04/09 03:34:02;;;;;;;32.03;17.87;;;;;;;-142.75;100.00;78153.25;5034168;28;20029;-67
2023/04/09 03:36:27;;;;;;;34.17;17.40;;;;;;;-142.75;100.00;78149.31;5033997;28;20478;-67
2023/04/09 03:38:52;;;;;;;34.33;18.58;;;;;;;-142.75;100.00;78133.56;5016418;28;20025;-67
2023/04/09 03:41:18;;;;;;;36.85;19.15;;;;;;;-142.75;100.00;78141.44;5034214;28;20508;-68
2023/04/09 03:43:44;;;;;;;36.47;19.05;;;;;;;-142.75;100.00;78153.25;5016220;28;20533;-67
2023/04/09 03:46:13;;;;;;;34.88;18.35;;;;;;;-142.75;100.00;78145.38;5016116;28;20481;-67
2023/04/09 03:48:39;;;;;;;32.55;17.65;;;;;;;-142.75;100.00;78141.44;5034092;28;20048;-66
2023/04/09 03:51:04;;;;;;;37.88;19.60;;;;;;;-142.75;100.00;78145.38;5034412;28;20485;-65
2023/04/09 03:53:30;;;;;;;34.80;18.20;;;;;;;-142.75;100.00;78147.34;5033853;28;20474;-66
2023/04/09 03:55:55;;;;;;;35.63;19.35;;;;;;;-142.75;100.00;78141.44;5033649;28;20026;-66
2023/04/09 03:58:20;;;;;;;36.07;18.90;;;;;;;-142.75;100.00;78149.31;5016051;28;20029;-67
2023/04/09 04:00:46;;;;;;;35.47;18.90;;;;;;;-142.75;100.00;78153.25;5033806;28;20025;-66
2023/04/09 04:03:13;;;;;;;32.65;18.67;;;;;;;-142.75;100.00;78141.44;5028106;28;20033;-68
2023/04/09 04:05:39;;;;;;;36.30;19.30;;;;;;;-142.75;100.00;78131.59;5033926;28;20083;-67
2023/04/09 04:08:04;;;;;;;34.88;18.92;;;;;;;-142.75;100.00;78137.50;5033824;28;20025;-64
2023/04/09 04:10:29;;;;;;;36.70;18.85;;;;;;;-142.75;100.00;78137.50;5033919;28;20029;-67
2023/04/09 04:12:55;;;;;;;38.13;20.17;;;;;;;-142.75;100.00;78129.63;5033430;28;20025;-66
2023/04/09 04:15:20;;;;;;;32.30;18.48;;;;;;;-142.75;100.00;78131.59;5015693;28;20032;-66
2023/04/09 04:17:45;;;;;;;35.33;19.52;;;;;;;-142.75;100.00;78145.38;5033300;28;20025;-67
2023/04/09 04:20:11;;;;;;;35.78;19.30;;;;;;;-142.75;100.00;78135.53;5033390;28;20029;-67
2023/04/09 04:22:36;;;;;;;34.97;18.20;;;;;;;-142.75;100.00;78123.72;5015485;28;20033;-63
2023/04/09 04:25:03;;;;;;;32.72;17.27;;;;;;;-142.75;100.00;78121.75;5032921;28;20022;-65
2023/04/09 04:27:28;;;;;;;34.05;18.23;;;;;;;-142.75;100.00;78107.97;5014587;28;20037;-65
2023/04/09 04:29:54;;;;;;;30.45;16.67;;;;;;;-142.75;100.00;78111.91;5033242;28;20033;-65
2023/04/09 04:32:20;;;;;;;30.83;17.15;;;;;;;-142.75;100.00;78106.00;5028842;28;20473;-64
2023/04/09 04:34:48;;;;;;;31.80;17.25;;;;;;;-142.75;100.00;78106.00;5029382;28;20086;-65
2023/04/09 04:37:14;;;;;;;33.92;18.80;;;;;;;-142.75;100.00;78102.06;5006850;28;20025;-64
2023/04/09 04:39:39;;;;;;;30.70;17.63;;;;;;;-142.75;100.00;78102.06;5031545;28;20036;-65
2023/04/09 04:42:04;;;;;;;32.60;18.08;;;;;;;-142.75;100.00;78102.06;5031296;28;20033;-64
2023/04/09 04:44:30;;;;;;;36.00;17.70;;;;;;;-142.75;100.00;78094.19;5031542;28;20504;-65
2023/04/09 04:46:55;;;;;;;34.50;17.63;;;;;;;-142.75;100.00;78094.19;5031138;28;20030;-66
2023/04/09 04:49:20;;;;;;;34.35;18.52;;;;;;;-142.75;100.00;78100.09;5013648;28;20021;-67
2023/04/09 04:51:46;;;;;;;37.17;19.45;;;;;;;-142.75;100.00;78092.22;5031316;28;20029;-67
2023/04/09 04:54:11;;;;;;;38.30;19.05;;;;;;;-142.75;100.00;78107.97;5014865;28;20039;-66
2023/04/09 04:56:36;;;;;;;32.47;17.40;;;;;;;-142.75;100.00;78109.94;5032423;28;20025;-65
2023/04/09 04:59:02;;;;;;;31.38;17.77;;;;;;;-142.75;100.00;78115.84;5032607;28;20108;-66
2023/04/09 05:01:28;;;;;;;32.03;16.75;;;;;;;-142.75;100.00;78117.81;5014921;28;20075;-67
2023/04/09 05:03:53;;;;;;;34.33;18.20;;;;;;;-142.75;100.00;78141.44;5032385;28;20029;-66
2023/04/09 05:06:18;;;;;;;33.72;18.95;;;;;;;-142.75;100.00;78113.88;5032239;28;20029;-66
2023/04/09 05:08:44;;;;;;;29.52;15.85;;;;;;;-142.75;100.00;78113.88;5032389;28;20029;-67
2023/04/09 05:11:13;;;;;;;35.22;18.55;;;;;;;-142.75;100.00;78102.06;5032394;28;20481;-67
2023/04/09 05:13:39;;;;;;;32.30;17.75;;;;;;;-142.75;100.00;78100.09;5032261;28;20033;-66
2023/04/09 05:16:05;;;;;;;33.92;19.38;;;;;;;-142.75;100.00;78109.94;5032082;28;20113;-66
2023/04/09 05:18:30;;;;;;;31.77;17.13;;;;;;;-142.75;100.00;78092.22;5032135;28;20374;-66
2023/04/09 05:20:56;;;;;;;31.65;17.13;;;;;;;-142.75;100.00;78090.25;5032328;28;20029;-67
2023/04/09 05:23:21;;;;;;;28.58;15.45;;;;;;;-142.75;100.00;78100.09;5032153;28;20036;-67
2023/04/09 05:25:49;;;;;;;33.53;17.42;;;;;;;-142.75;100.00;78090.25;5031789;28;20030;-67
2023/04/09 05:28:18;;;;;;;34.10;18.05;;;;;;;-142.75;100.00;78092.22;5032119;28;20033;-67
2023/04/09 05:30:46;;;;;;;28.75;16.50;;;;;;;-142.75;100.00;78084.34;5032120;28;20053;-67
2023/04/09 05:33:12;;;;;;;39.63;17.98;;;;;;;-142.75;100.00;78106.00;5031866;28;20052;-67
2023/04/09 05:35:38;;;;;;;36.03;18.95;;;;;;;-142.75;100.00;78113.88;5031815;28;20497;-67
2023/04/09 05:38:04;;;;;;;35.95;18.38;;;;;;;-142.75;100.00;78082.38;5027170;22;20022;-67
2023/04/09 05:40:29;;;;;;;33.30;18.02;;;;;;;-142.75;100.00;78072.53;4993804;28;20478;-68
2023/04/09 05:42:54;;;;;;;33.25;17.33;;;;;;;-142.75;100.00;78090.25;5011335;28;20040;-68
2023/04/09 05:45:20;;;;;;;30.67;16.77;;;;;;;-142.75;100.00;78090.25;5012148;28;20037;-68
2023/04/09 05:47:45;;;;;;;33.30;16.60;;;;;;;-142.75;100.00;78094.19;5011803;28;20101;-68
2023/04/09 05:50:11;;;;;;;30.75;16.95;;;;;;;-142.75;100.00;78082.38;5011628;28;20038;-68
2023/04/09 05:52:36;;;;;;;30.27;17.08;;;;;;;-142.75;100.00;78090.25;5011731;28;20033;-68
2023/04/09 05:55:02;;;;;;;35.30;17.58;;;;;;;-142.75;100.00;78090.25;5011984;28;20448;-68
2023/04/09 05:57:29;;;;;;;35.42;18.02;;;;;;;-142.75;100.00;78119.78;5011872;28;20022;-68
2023/04/09 05:59:54;;;;;;;36.20;17.75;;;;;;;-142.75;100.00;78086.31;4994363;28;20489;-68
2023/04/09 06:02:20;;;;;;;34.65;17.85;;;;;;;-142.75;100.00;78086.31;4994153;28;20032;-68
2023/04/09 06:04:45;;;;;;;32.28;17.20;;;;;;;-142.75;100.00;78078.44;5011076;28;20489;-68
2023/04/09 06:07:10;;;;;;;35.88;18.40;;;;;;;-142.75;100.00;78082.38;5011733;28;20461;-68
2023/04/09 06:09:36;;;;;;;30.67;16.85;;;;;;;-142.75;100.00;78080.41;5011884;28;20482;-67
2023/04/09 06:12:02;;;;;;;37.83;18.98;;;;;;;-142.75;100.00;78078.44;5011745;28;20037;-68
2023/04/09 06:14:28;;;;;;;33.13;17.50;;;;;;;-142.75;100.00;78082.38;4994333;28;20026;-68
2023/04/09 06:16:53;;;;;;;34.90;17.52;;;;;;;-142.75;100.00;78090.25;5011648;28;20072;-68
2023/04/09 06:19:18;;;;;;;33.30;17.65;;;;;;;-142.75;100.00;78106.00;5011836;28;20029;-67
2023/04/09 06:21:44;;;;;;;37.03;17.70;;;;;;;-142.75;100.00;78113.88;5011773;28;20062;-68
2023/04/09 06:24:09;;;;;;;39.13;19.08;;;;;;;-142.75;100.00;78098.13;5011701;28;20092;-68
2023/04/09 06:26:35;;;;;;;37.90;18.67;;;;;;;-142.75;100.00;78102.06;5011588;28;20109;-68
2023/04/09 06:29:00;;;;;;;42.53;20.30;;;;;;;-142.75;100.00;78109.94;5011615;28;20036;-66
2023/04/09 06:31:26;;;;;;;37.88;19.67;;;;;;;-142.75;100.00;78117.81;5011645;28;20030;-67
2023/04/09 06:33:51;;;;;;;36.45;18.73;;;;;;;-142.75;100.00;78113.88;4994008;28;20022;-67
2023/04/09 06:36:16;;;;;;;36.70;18.63;;;;;;;-142.75;100.00;78125.69;5011485;28;20082;-68
2023/04/09 06:38:42;;;;;;;42.22;20.90;;;;;;;-142.75;100.00;78119.78;5011328;28;20095;-67
2023/04/09 06:41:07;;;;;;;44.38;20.55;;;;;;;-142.75;100.00;78131.59;5011413;28;20037;-68
2023/04/09 06:43:33;;;;;;;45.15;20.85;;;;;;;-142.75;100.00;78125.69;5011494;28;20036;-68
2023/04/09 06:45:58;;;;;;;44.40;20.23;;;;;;;-142.75;100.00;78121.75;5011005;28;20021;-68
2023/04/09 06:48:24;;;;;;;41.28;20.50;;;;;;;-142.75;100.00;78109.94;5011448;28;20552;-68
2023/04/09 06:50:49;;;;;;;45.08;22.13;;;;;;;-142.75;100.00;78111.91;5015207;28;20025;-68
2023/04/09 06:53:15;;;;;;;51.38;22.65;;;;;;;-142.75;100.00;78109.94;5015206;28;20102;-68
2023/04/09 06:55:40;;;;;;;53.88;22.77;;;;;;;-142.75;100.00;78127.66;5015149;28;20204;-68
2023/04/09 06:58:06;;;;;;;45.35;20.65;;;;;;;-142.75;100.00;78123.72;5015099;28;20022;-68
2023/04/09 07:00:31;;;;;;;50.42;22.33;;;;;;;-142.75;100.00;78115.84;5015122;28;20033;-68
2023/04/09 07:02:56;;;;;;;54.75;22.27;;;;;;;-142.75;100.00;78113.88;5015095;28;20049;-68
2023/04/09 07:05:22;;;;;;;50.83;23.83;;;;;;;-142.75;100.00;78139.47;5014867;28;20029;-68
2023/04/09 07:07:48;;;;;;;49.60;22.08;;;;;;;-142.75;100.00;78133.56;5014590;28;20101;-67
2023/04/09 07:10:13;;;;;;;53.65;23.60;;;;;;;-142.75;100.00;78141.44;5015000;28;20120;-68
2023/04/09 07:12:39;;;;;;;52.60;23.48;;;;;;;-142.75;100.00;78137.50;4997281;28;20018;-68
2023/04/09 07:15:06;;;;;;;51.28;23.15;;;;;;;-142.75;100.00;78133.56;4997189;28;20080;-68
2023/04/09 07:17:32;;;;;;;52.63;22.80;;;;;;;-142.75;100.00;78131.59;5014757;28;20545;-68
2023/04/09 07:19:57;;;;;;;58.47;24.20;;;;;;;-142.75;100.00;78149.31;4997082;28;20125;-68
2023/04/09 07:22:25;;;;;;;53.35;24.23;;;;;;;-142.75;100.00;78137.50;5014686;28;20087;-68
2023/04/09 07:24:53;;;;;;;52.97;23.90;;;;;;;-142.75;100.00;78123.72;4997090;28;20094;-68
2023/04/09 07:27:26;;;;;;;53.47;24.83;;;;;;;-142.75;100.00;78117.81;5014552;28;20112;-68
2023/04/09 07:29:58;;;;;;;61.05;25.65;;;;;;;-142.75;100.00;78133.56;5014109;28;20030;-68
2023/04/09 07:32:25;;;;;;;54.38;24.20;;;;;;;-142.75;100.00;78141.44;5014391;28;20108;-68
2023/04/09 07:34:51;;;;;;;62.25;26.65;;;;;;;-142.75;100.00;78153.25;5014646;28;20045;-68
2023/04/09 07:37:17;;;;;;;62.33;26.67;;;;;;;-142.75;100.00;78149.31;5014385;28;20021;-68
2023/04/09 07:39:42;;;;;;;58.17;24.80;;;;;;;-142.75;100.00;78149.31;5014286;28;20037;-68
2023/04/09 07:42:08;;;;;;;68.65;27.88;;;;;;;-142.75;100.00;78161.13;5014325;28;20432;-68
2023/04/09 07:44:35;;;;;;;60.28;25.83;;;;;;;-142.75;100.00;78157.19;5014295;28;20030;-68
2023/04/09 07:47:04;;;;;;;61.63;26.40;;;;;;;-142.75;100.00;78159.16;5013930;28;20040;-68
2023/04/09 07:49:30;;;;;;;60.72;26.70;;;;;;;-142.75;100.00;78151.28;5014160;28;20037;-67
2023/04/09 07:51:56;;;;;;;57.95;27.20;;;;;;;-142.75;100.00;78176.88;5014224;28;20029;-68
2023/04/09 07:54:21;;;;;;;64.95;27.17;;;;;;;-142.75;100.00;78174.91;5014128;28;20026;-68
2023/04/09 07:56:47;;;;;;;61.25;25.73;;;;;;;-142.75;100.00;78170.97;4996449;28;20022;-68
2023/04/09 07:59:14;;;;;;;58.45;25.80;;;;;;;-142.75;100.00;78153.25;5013854;28;20025;-68
2023/04/09 08:01:40;;;;;;;55.30;24.92;;;;;;;-142.75;100.00;78151.28;5014042;28;20076;-68
2023/04/09 08:04:05;;;;;;;55.20;27.17;;;;;;;-142.75;100.00;78141.44;5013897;28;20022;-68
2023/04/09 08:06:30;;;;;;;56.00;25.25;;;;;;;-142.75;100.00;78147.34;5013859;28;20034;-68
2023/04/09 08:08:57;;;;;;;59.58;25.80;;;;;;;-142.75;100.00;78149.31;5013738;28;20034;-68
2023/04/09 08:11:24;;;;;;;60.42;25.92;;;;;;;-142.75;100.00;78161.13;5013961;28;20026;-68
2023/04/09 08:13:51;;;;;;;59.17;25.58;;;;;;;-142.75;100.00;78143.41;5013745;28;20029;-68
2023/04/09 08:16:16;;;;;;;60.90;25.73;;;;;;;-142.75;100.00;78159.16;5013545;28;20390;-68
2023/04/09 08:18:41;;;;;;;61.72;25.52;;;;;;;-142.75;100.00;78151.28;5013624;28;20036;-68
2023/04/09 08:21:07;;;;;;;54.45;24.80;;;;;;;-142.75;100.00;78163.09;4996207;28;20508;-68
2023/04/09 08:23:32;;;;;;;53.05;24.17;;;;;;;-142.75;100.00;78172.94;5013578;28;20053;-68
2023/04/09 08:25:57;;;;;;;57.80;28.13;;;;;;;-142.75;100.00;78176.88;5013351;28;20449;-68
2023/04/09 08:28:23;;;;;;;53.53;25.05;;;;;;;-142.75;100.00;78165.06;5013387;28;20073;-68
2023/04/09 08:30:48;;;;;;;53.97;23.35;;;;;;;-142.75;100.00;78159.16;4995844;28;20112;-68
2023/04/09 08:33:13;;;;;;;61.50;27.63;;;;;;;-142.75;100.00;78157.19;4995804;28;20030;-68
2023/04/09 08:35:40;;;;;;;59.35;25.33;;;;;;;-142.75;100.00;78172.94;5010090;28;20033;-68
2023/04/09 08:38:05;;;;;;;58.72;27.30;;;;;;;-142.75;100.00;78172.94;5007454;28;20022;-68
2023/04/09 08:40:35;;;;;;;61.15;25.52;;;;;;;-142.75;100.00;78182.81;5013193;28;20116;-68
2023/04/09 08:43:04;;;;;;;61.30;28.48;;;;;;;-142.75;100.00;78174.91;4995092;28;20504;-68
2023/04/09 08:45:29;;;;;;;61.33;26.75;;;;;;;-142.75;100.00;78172.94;5005170;28;20494;-68
2023/04/09 08:47:58;;;;;;;60.58;28.90;;;;;;;-142.75;100.00;78159.16;4994477;28;20068;-68
2023/04/09 08:50:24;;;;;;;57.58;27.10;;;;;;;-142.75;100.00;78188.72;4976727;28;20081;-68
2023/04/09 08:52:49;;;;;;;62.35;28.35;;;;;;;-142.75;100.00;78188.72;5000124;28;20042;-68
2023/04/09 08:55:15;;;;;;;59.55;28.00;;;;;;;-142.75;100.00;78200.53;5007060;28;20029;-68
2023/04/09 08:57:41;;;;;;;69.53;29.80;;;;;;;-142.75;100.00;78194.63;5001847;28;20021;-68
2023/04/09 09:00:08;;;;;;;65.75;30.25;;;;;;;-142.75;100.00;78188.72;5003409;28;20034;-67
2023/04/09 09:02:34;;;;;;;61.92;29.33;;;;;;;-142.75;100.00;78202.50;4984620;28;20026;-68
2023/04/09 09:05:00;;;;;;;63.53;29.17;;;;;;;-142.75;100.00;78202.50;4994496;28;20034;-68
2023/04/09 09:07:31;;;;;;;61.45;28.50;;;;;;;-142.75;100.00;78204.47;5003652;28;20041;-68
2023/04/09 09:09:58;;;;;;;67.57;29.67;;;;;;;-142.75;100.00;78192.66;5002421;28;20030;-68
2023/04/09 09:12:30;;;;;;;68.70;30.60;;;;;;;-142.75;100.00;78180.81;5003586;28;20080;-68
2023/04/09 09:14:56;;;;;;;72.32;31.15;;;;;;;-142.75;100.00;78204.47;5012916;28;20065;-68
2023/04/09 09:17:21;;;;;;;73.10;31.55;;;;;;;-142.75;100.00;78188.72;5012711;28;20061;-68
2023/04/09 09:19:46;;;;;;;67.40;30.33;;;;;;;-142.75;100.00;78196.59;5012725;28;20029;-68
2023/04/09 09:22:12;;;;;;;63.92;30.20;;;;;;;-142.75;100.00;78163.09;4995210;28;20037;-68
2023/04/09 09:24:51;;;;;;;64.47;29.33;;;;;;;-142.75;100.00;78149.31;5012715;28;20501;-68
2023/04/09 09:27:39;;;;;;;72.13;30.92;;;;;;;-142.75;100.00;78133.56;5012170;28;20038;-68
2023/04/09 09:30:05;;;;;;;65.30;29.75;;;;;;;-142.75;100.00;78119.78;5012224;28;20026;-68
2023/04/09 09:32:32;;;;;;;69.90;30.40;;;;;;;-142.75;100.00;78127.66;5012256;28;20025;-69
2023/04/09 09:35:00;;;;;;;69.57;31.35;;;;;;;-142.75;100.00;78109.94;5012262;28;20026;-68
2023/04/09 09:37:29;;;;;;;62.88;29.70;;;;;;;-142.75;100.00;78098.13;5012103;28;20033;-68
2023/04/09 09:39:55;;;;;;;59.15;28.90;;;;;;;-142.75;100.00;78090.25;5012135;28;20026;-68
2023/04/09 09:42:21;;;;;;;69.10;29.40;;;;;;;-142.75;100.00;78074.50;4994590;28;20446;-69
2023/04/09 09:44:47;;;;;;;65.85;30.23;;;;;;;-142.75;100.00;78070.56;4993657;28;20545;-68
2023/04/09 09:47:13;;;;;;;63.28;30.40;;;;;;;-142.75;100.00;78064.66;4992122;28;20748;-68
2023/04/09 09:49:39;;;;;;;64.85;29.02;;;;;;;-142.75;100.00;78033.13;4992559;28;20023;-68
2023/04/09 09:52:09;;;;;;;65.47;29.42;;;;;;;-142.75;100.00;78042.97;4992254;28;20022;-68
2023/04/09 09:54:41;;;;;;;56.08;26.75;;;;;;;-142.75;100.00;78011.47;4992521;28;20509;-68
2023/04/09 09:57:12;;;;;;;59.28;29.08;;;;;;;-142.75;100.00;77976.03;4992344;28;20129;-68
2023/04/09 09:59:40;;;;;;;62.65;29.27;;;;;;;-142.75;100.00;77954.38;4992444;28;20026;-68
2023/04/09 10:02:13;;;;;;;60.38;28.08;;;;;;;-142.75;100.00;77924.84;4974689;28;20080;-68
2023/04/09 10:04:40;;;;;;;58.33;27.48;;;;;;;-142.75;100.00;77926.81;4992103;28;20153;-68
2023/04/09 10:07:07;;;;;;;57.83;27.10;;;;;;;-142.75;100.00;77930.75;4992215;28;20081;-68
2023/04/09 10:09:34;;;;;;;52.95;25.20;;;;;;;-142.75;100.00;77918.94;4974480;28;20143;-68
2023/04/09 10:12:01;;;;;;;50.13;24.83;;;;;;;-142.75;100.00;77909.06;4992248;28;20150;-68
2023/04/09 10:14:28;;;;;;;53.03;24.27;;;;;;;-142.75;100.00;77897.25;4992436;28;20019;-68
2023/04/09 10:16:53;;;;;;;51.90;23.90;;;;;;;-142.75;100.00;77909.06;4974725;28;20030;-68
2023/04/09 10:19:21;;;;;;;50.47;22.73;;;;;;;-142.75;100.00;77881.50;4992198;28;20026;-69
2023/04/09 10:21:52;;;;;;;47.42;23.08;;;;;;;-142.75;100.00;77901.19;4984944;28;20033;-68
2023/04/09 10:24:17;;;;;;;45.20;21.80;;;;;;;-142.75;100.00;77887.41;5002721;28;20022;-68
2023/04/09 10:26:43;;;;;;;48.83;23.05;;;;;;;-142.75;100.00;77850.00;5012596;28;20367;-68
2023/04/09 10:29:14;;;;;;;49.45;22.92;;;;;;;-142.75;100.00;77869.69;5015751;28;20405;-70
2023/04/09 10:31:53;;;;;;;47.22;22.60;;;;;;;-142.75;100.00;77848.03;5015842;28;20072;-67
2023/04/09 10:34:26;;;;;;;48.75;23.30;;;;;;;-142.75;100.00;77838.19;4998041;28;20066;-67
2023/04/09 10:36:55;;;;;;;45.53;22.50;;;;;;;-142.75;100.00;77810.63;5015771;28;20037;-67
2023/04/09 10:39:25;;;;;;;47.33;23.17;;;;;;;-142.75;100.00;77792.91;5015310;28;20033;-68
2023/04/09 10:41:52;;;;;;;43.45;22.42;;;;;;;-142.75;100.00;77787.00;5015573;28;20686;-67
2023/04/09 10:44:22;;;;;;;47.58;22.70;;;;;;;-142.75;100.00;77763.38;5015364;28;20032;-67
2023/04/09 10:46:49;;;;;;;41.33;22.73;;;;;;;-142.75;100.00;77749.59;5015552;28;20018;-66
2023/04/09 10:49:19;;;;;;;44.35;23.30;;;;;;;-142.75;100.00;77745.66;5015505;28;20497;-66
2023/04/09 10:51:51;;;;;;;42.30;22.48;;;;;;;-142.75;100.00;77735.81;5015504;28;20119;-66
2023/04/09 10:54:32;;;;;;;44.88;23.90;;;;;;;-142.75;100.00;77700.34;4993223;28;20026;-66